Weather, Runways
& NOTAMs

CYYZ - Toronto-Lester B. Pearson International
CYYZ 230600Z 19015KT 15SM BKN080 BKN100 24/16 A2977 RMK AC6AC1 AC TR SLP081 DENSITY ALT 2000FT
Suggested Runways: Departures: 23, Arrivals: 24R
CYOW - Ottawa Macdonald-Cartier International
CYOW 230600Z 22009KT 15SM -SHRA SCT070 OVC120 23/16 A2973 RMK AC3AC5 SLP067 DENSITY ALT 1600FT
Suggested Runway: 25
CYTZ - Billy Bishop Toronto City
CYTZ 230600Z AUTO 20008KT 9SM OVC090 22/18 A2977 RMK SLP081 DENSITY ALT 1300FT
Suggested Runway: 26
CYXU - London International
CYXU 230600Z 23013G21KT 15SM -SHRA BKN050TCU OVC075 23/17 A2982 RMK TCU6AC2 WS RWY15 SLP093 DENSITY ALT 2200FT
Suggested Runway: 15
CYHM - John C. Munro Hamilton International
CYHM 230600Z 21010KT 15SM BKN076 OVC140 23/16 A2981 RMK AC6AC2 SLP091 DENSITY ALT 2000FT
Suggested Runway: 12
CYKF - Region of Waterloo International
CYKF 230600Z AUTO 21006KT 9SM OVC070 22/17 A2981 RMK SLP088 DENSITY ALT 2200FT
Suggested Runway: 26
CYAM - Sault Ste. Marie
CYAM 230600Z 00000KT 15SM MIFG FEW016 SCT160 12/12 A2973 RMK CU2AC1 MIFG SE-W SLP071 DENSITY ALT 700FT
Suggested Runway: 30
CYTR - Canadian Forces Base Trenton
CYTR 230600Z 22007KT 15SM OVC072 23/17 A2978 RMK AC8 SLP085
Suggested Runway: 24
CYOO - Toronto/Oshawa Executive
CYOO 230600Z AUTO 21006KT 9SM BKN090 OVC110 23/17 A2977 RMK SLP081 DENSITY ALT 1600FT
Suggested Runway: 23

NOTAMs

190904 CYYZ TORONTO/LESTER B.PEARSON INTL CYYZ RNAV(GNSS) Z RWY 23, RNAV (GNSS) X RWY 23 APCH: LPV AND LNAV/VNAV MINIMA: NOT AUTH 1907121245 TIL APRX 1910301900 

191147 CYYZ TORONTO/LESTER B.PEARSON INTL CYYZ TWY N BTN TWY F AND TWY E CLSD 1909131254 TIL 1909302359 

191187 CYYZ TORONTO/LESTER B.PEARSON INTL CYYZ RWY 06R/24L CLSD SEP 23 0430-1000 SEP 24 0430-1000 1430-1800 1909230430 TIL 1909241800 

191189 CYYZ TORONTO/LESTER B.PEARSON INTL CYYZ TWY J BTN TWY K AND RWY 15L CLSD 1909231430 TIL 1909231800 

191191 CYYZ TORONTO/LESTER B.PEARSON INTL CYYZ RWY 06L/24R CLSD 1909240430 TIL 1909241000 

190806 CYOW OTTAWA/MACDONALD-CARTIER INTL CYOW RNAV(GNSS) Z RWY 14 APCH: LNAV/VNAV MINIMA: NOT AUTH AD CHART: DEP PROC: RWY 04: NOT ASSESSED SID (VECTOR) OTTAWA FOUR DEP: DEP ROUTE RWY 04: NOT AUTH MON-FRI 1100-1900 1909171100 TIL 1910021900 

190823 CYOW OTTAWA/MACDONALD-CARTIER INTL CYOW RWY 14/32 CLSD AVBL AS TWY BTN RWY 07/25 AND TWY D SEP 23 1230-2000 SEP 24 1200-2000 1909231230 TIL 1909242000 

190455 CYXU LONDON CYXU TWY G CLSD BTN TWY A AND 300 FT NORTH OF TWY D 1909171750 TIL 1909302000 

190456 CYXU LONDON CYXU TWY D CLSD DUE CONST 1909171800 TIL 1909302000 

190576 CYHM HAMILTON CYHM LOW VIS PROC RWY 12 NOT AUTH 1908281145 TIL APRX 1911152100 

190577 CYHM HAMILTON CYHM REDUCED VIS PROC RWY 12 AND 30 NOT AUTH 1908281145 TIL APRX 1911152100 

190643 CYHM HAMILTON CYHM ILS OR NDB RWY 12 (GNSS) APCH: ILS AND LOC MINIMA: NOT AUTH 1909101355 TIL APRX 1911152100 

190644 CYHM HAMILTON CYHM ILS CAT II RWY 12 APCH: NOT AUTH 1909101355 TIL APRX 1911152100 

190645 CYHM HAMILTON CYHM LOC OR NDB RWY 30 APCH: LOC MINIMA: NOT AUTH NDB MINIMA TO READ: 1280 (508) 1 1/2 PUBLISHED DIST/ALT TABLE NOT VALID PUBLISHED CONSTANT DESCENT ANGLE NOT VALID 1909101355 TIL APRX 1911152100 

190685 CYHM HAMILTON CYHM RNAV (GNSS) Z RWY 30 APCH: LPV MINIMA: NOT AUTH LNAV MINIMA TO READ: 1280 (514) 1 1/2 PUBLISHED DIST/ALT TABLE NOT VALID PUBLISHED CONSTANT DESCENT ANGLE NOT VALID 1909181258 TIL APRX 1909301259 

190692 CYHM HAMILTON CYHM CYHM RWY 12/30 CLSD DUE CONST SEP 19 1200-1230 2015-2100 SEP 20 23 1300-1330 2015-2100 SEP 24-26 1200-1230 2015-2100 SEP 27 30 1300-1330 2015-2100 1909191200 TIL APRX 1909302100 

190693 CYHM HAMILTON CYHM RWY 06/24 CLSD DUE CONST SEP 19 1200-1230 2015-2100 SEP 20 1300-1330 2015-2100 SEP 23 1300-1330 2015-2100 SEP 24-26 1200-1230 2015-2100 SEP 27 1300-1330 2015-2100 SEP 30 1300-1330 2015-2100 1909191200 TIL APRX 1909302100 

190711 CYHM HAMILTON CYHM FIRST 1542 FT RWY 30 CLSD. THR 30 DISPLACED BY 1148 FT BEYOND PUB DTHR. MARKED WITH ORANGE AND WHITE MARKER BOARDS. DECLARED DIST WITH RWY 12/30 LENGTH REDUCED: RWY 12 TORA 8464 TODA 8464 ASDA 8464 LDA 6856 RWY 30 TORA 8464 TODA 9448 ASDA 8464 LDA 8464 SEP 20 2101-SEP 23 1259 SEP 24-26 2101-1159 SEP 27 2101-SEP 30 1259 1909202101 TIL 1909301259 

190712 CYHM HAMILTON CYHM FIRST 2506 FT RWY 30 CLSD. THR 30 DISPLACED BY 2112 FT BEYOND PUB DTHR. MARKED WITH ORANGE AND WHITE MARKER BOARDS. DECLARED DIST WITH RWY 12/30 LENGTH REDUCED: RWY 12 TORA 7500 TODA 7500 ASDA 7500 LDA 5892 RWY 30 TORA 7500 TODA 8484 ASDA 7500 LDA 7500 SEP 20 23 1331-2014 SEP 24-26 1231-2014 SEP 27 30 1331-2014 1909201331 TIL APRX 1909302014 

190479 CYKF KITCHENER/WATERLOO CYKF TWY A CLSD BTN TWY F AND THR 26 1909241100 TIL 1909241600 

190484 CYKF KITCHENER/WATERLOO CYKF RNAV (GNSS) Z RWY 26 APCH: LPV MINIMA: NOT AUTH LNAV/VNAV MINIMA: NOT AUTH LNAV MINIMA TO READ: 1560 (506) 1 1/2 DIST/ALT TABLE, CONTANT DESCENT ANGLE AND RATE OF DESCENT INFO NOT USEABLE 1909241100 TIL 1909241600 

190485 CYKF KITCHENER/WATERLOO CYKF RNAV (RNP) Y RWY 08 APCH: RNP 0.15 MINIMA: NOT AUTH 1909241100 TIL 1909241600 

190486 CYKF KITCHENER/WATERLOO CYKF ILS RWY 26 APCH: NOT AUTH 1909241100 TIL 1909241600 

190488 CYKF KITCHENER/WATERLOO CYKF RNAV (RNP) Y RWY 26 APCH: NOT AUTH 1909241100 TIL 1909241600 

190172 CYTR TRENTON CYTR TWY F CLSD BTN TWY C AND TWY P DUE CONST 1909231000 TIL 1910112200